Time;durP1;ratioP1;P1;durP2;ratioP2;P2;SDS_P1;SDS_P2;PMS_P1;PMS_P2;Temp;Humidity;BMP_temperature;BMP_pressure;BME280_temperature;BME280_humidity;BME280_pressure;Samples;Min_cycle;Max_cycle;Signal;HPM_P1;HPM_P2
2022/09/25 00:00:36;;;;;;;8.93;4.15;;;10.00;99.90;;;;;;5048252;28;20037;-61
2022/09/25 00:03:02;;;;;;;12.85;4.80;;;10.00;99.90;;;;;;5054732;28;20481;-62
2022/09/25 00:05:28;;;;;;;10.15;4.70;;;10.00;99.90;;;;;;5054492;28;20040;-62
2022/09/25 00:07:55;;;;;;;9.57;4.45;;;10.00;99.90;;;;;;5054626;28;20082;-61
2022/09/25 00:10:24;;;;;;;10.35;3.90;;;9.90;99.90;;;;;;5054373;28;20399;-62
2022/09/25 00:12:50;;;;;;;11.07;4.40;;;9.90;99.90;;;;;;5054475;28;20370;-61
2022/09/25 00:15:17;;;;;;;10.25;3.80;;;10.00;99.90;;;;;;5054028;28;20407;-62
2022/09/25 00:17:42;;;;;;;10.38;3.83;;;9.90;99.90;;;;;;5054870;28;20096;-61
2022/09/25 00:20:09;;;;;;;7.28;4.18;;;9.90;99.90;;;;;;5054719;28;20075;-61
2022/09/25 00:22:34;;;;;;;9.40;4.30;;;9.90;99.90;;;;;;5054155;28;20171;-62
2022/09/25 00:25:02;;;;;;;10.63;4.07;;;9.90;99.90;;;;;;5054184;28;20120;-61
2022/09/25 00:27:28;;;;;;;8.45;4.25;;;9.90;99.90;;;;;;5054380;28;20036;-61
2022/09/25 00:29:53;;;;;;;10.02;3.88;;;9.90;99.90;;;;;;5054627;28;20037;-62
2022/09/25 00:32:19;;;;;;;9.32;4.30;;;9.90;99.90;;;;;;5054005;28;20063;-61
2022/09/25 00:34:45;;;;;;;11.52;4.63;;;9.80;99.90;;;;;;5054265;28;20578;-62
2022/09/25 00:37:10;;;;;;;11.35;4.50;;;9.80;99.90;;;;;;5054076;28;20045;-63
2022/09/25 00:39:36;;;;;;;9.38;4.13;;;9.80;99.90;;;;;;5054465;28;20458;-61
2022/09/25 00:42:02;;;;;;;9.02;4.38;;;9.80;99.90;;;;;;5054267;28;20685;-62
2022/09/25 00:44:46;;;;;;;8.20;3.95;;;9.70;99.90;;;;;;5053639;28;20049;-61
2022/09/25 00:47:16;;;;;;;8.88;3.67;;;9.70;99.90;;;;;;5054339;28;20047;-65
2022/09/25 00:49:43;;;;;;;6.72;3.75;;;9.70;99.90;;;;;;5054522;28;20051;-62
2022/09/25 00:52:14;;;;;;;7.20;3.40;;;9.70;99.90;;;;;;5053670;28;20462;-61
2022/09/25 00:54:49;;;;;;;7.63;3.20;;;9.70;99.90;;;;;;5040782;28;20039;-61
2022/09/25 00:57:20;;;;;;;8.38;3.53;;;9.70;99.90;;;;;;5054055;28;20029;-62
2022/09/25 00:59:51;;;;;;;7.70;3.22;;;9.70;99.90;;;;;;5040126;28;20047;-62
2022/09/25 01:02:24;;;;;;;8.10;3.55;;;9.70;99.90;;;;;;5053957;28;20029;-62
2022/09/25 01:04:50;;;;;;;8.95;3.10;;;9.70;99.90;;;;;;5039990;28;20591;-62
2022/09/25 01:07:16;;;;;;;6.07;2.80;;;9.70;99.90;;;;;;5053885;28;20038;-62
2022/09/25 01:09:43;;;;;;;7.25;3.80;;;9.70;99.90;;;;;;5053005;28;20048;-63
2022/09/25 01:12:08;;;;;;;9.57;3.30;;;9.70;99.90;;;;;;5053479;28;20110;-62
2022/09/25 01:14:35;;;;;;;7.35;3.28;;;9.70;99.90;;;;;;5053350;28;20048;-62
2022/09/25 01:17:15;;;;;;;9.98;3.75;;;9.70;99.90;;;;;;5052462;28;20049;-61
2022/09/25 01:20:17;;;;;;;8.45;3.30;;;9.70;99.90;;;;;;5053473;28;20457;-62
2022/09/25 01:22:54;;;;;;;6.78;2.83;;;9.70;99.90;;;;;;5053474;28;20045;-62
2022/09/25 01:25:56;;;;;;;9.18;2.72;;;9.70;99.90;;;;;;5040547;28;20648;-62
2022/09/25 01:28:42;;;;;;;8.18;3.15;;;9.70;99.90;;;;;;5053450;28;20138;-62
2022/09/25 01:31:15;;;;;;;8.30;3.03;;;9.60;99.90;;;;;;5053474;28;20041;-62
2022/09/25 01:33:47;;;;;;;6.25;2.70;;;9.60;99.90;;;;;;5053082;28;20037;-62
2022/09/25 01:36:28;;;;;;;9.57;2.80;;;9.60;99.90;;;;;;5053248;28;20094;-62
2022/09/25 01:39:06;;;;;;;8.10;2.70;;;9.60;99.90;;;;;;5053190;28;20045;-62
2022/09/25 01:41:43;;;;;;;8.25;3.00;;;9.60;99.90;;;;;;5053457;28;20044;-62
2022/09/25 01:44:15;;;;;;;7.43;2.90;;;9.50;99.90;;;;;;5052434;28;20478;-62
2022/09/25 01:46:46;;;;;;;8.88;2.95;;;9.60;99.90;;;;;;5053355;28;20098;-62
2022/09/25 01:49:26;;;;;;;6.90;2.88;;;9.60;99.90;;;;;;5053396;28;20045;-62
2022/09/25 01:51:54;;;;;;;8.10;2.70;;;9.60;99.90;;;;;;5052999;28;20370;-63
2022/09/25 01:54:37;;;;;;;8.63;2.88;;;9.60;99.90;;;;;;5052355;28;20542;-62
2022/09/25 01:57:28;;;;;;;9.38;2.83;;;9.60;99.90;;;;;;5053092;28;20051;-63
2022/09/25 02:00:00;;;;;;;10.77;3.17;;;9.60;99.90;;;;;;5052773;28;20438;-62
2022/09/25 02:02:32;;;;;;;6.55;3.05;;;9.60;99.90;;;;;;5051685;28;20037;-62
2022/09/25 02:05:06;;;;;;;5.45;2.70;;;9.60;99.90;;;;;;5052594;28;20098;-62
2022/09/25 02:07:44;;;;;;;10.45;3.35;;;9.60;99.90;;;;;;5052646;28;20115;-62
2022/09/25 02:10:24;;;;;;;9.73;3.17;;;9.60;99.90;;;;;;5053100;28;20047;-63
2022/09/25 02:12:55;;;;;;;7.35;2.85;;;9.50;99.90;;;;;;5050476;28;20037;-62
2022/09/25 02:15:33;;;;;;;6.95;2.85;;;9.50;99.90;;;;;;5052473;28;20115;-62
2022/09/25 02:21:04;;;;;;;8.85;3.17;;;9.60;99.90;;;;;;5052432;28;20398;-62
2022/09/25 02:23:41;;;;;;;9.25;2.95;;;9.50;99.90;;;;;;5051641;28;20758;-62
2022/09/25 02:26:13;;;;;;;8.38;2.28;;;9.60;99.90;;;;;;5052628;28;20045;-62
2022/09/25 02:28:39;;;;;;;7.60;2.92;;;9.50;99.90;;;;;;5052702;28;20041;-62
2022/09/25 02:31:08;;;;;;;6.20;2.60;;;9.50;99.90;;;;;;5051271;28;20044;-63
2022/09/25 02:33:34;;;;;;;6.97;3.00;;;9.50;99.90;;;;;;5051598;28;20041;-62
2022/09/25 02:36:02;;;;;;;5.60;2.72;;;9.50;99.90;;;;;;5051275;28;20047;-62
2022/09/25 02:38:32;;;;;;;6.25;2.65;;;9.50;99.90;;;;;;5051705;28;20386;-62
2022/09/25 02:41:16;;;;;;;5.97;2.90;;;9.50;99.90;;;;;;5052222;28;20041;-62
2022/09/25 02:43:53;;;;;;;7.68;2.97;;;9.40;99.90;;;;;;5051776;28;20045;-62
2022/09/25 02:46:45;;;;;;;8.00;3.10;;;9.40;99.90;;;;;;5051311;28;20111;-62
2022/09/25 02:49:13;;;;;;;6.63;2.80;;;9.40;99.90;;;;;;5048889;28;20037;-63
2022/09/25 02:52:04;;;;;;;6.45;2.90;;;9.40;99.90;;;;;;5052248;28;20050;-62
2022/09/25 02:54:53;;;;;;;6.22;2.75;;;9.40;99.90;;;;;;5051560;28;20033;-62
2022/09/25 02:57:21;;;;;;;8.30;2.97;;;9.40;99.90;;;;;;5051921;28;20037;-62
2022/09/25 02:59:55;;;;;;;7.25;2.90;;;9.40;99.90;;;;;;5051889;28;20092;-62
2022/09/25 03:02:22;;;;;;;8.05;3.20;;;9.40;99.90;;;;;;5050631;28;20052;-62
2022/09/25 03:04:49;;;;;;;8.85;3.33;;;9.30;99.90;;;;;;5037715;28;20044;-63
2022/09/25 03:07:17;;;;;;;7.13;3.10;;;9.40;99.90;;;;;;5051707;28;20116;-62
2022/09/25 03:09:46;;;;;;;9.35;3.20;;;9.40;99.90;;;;;;5051848;28;20052;-62
2022/09/25 03:12:13;;;;;;;13.02;3.20;;;9.30;99.90;;;;;;5050591;28;20060;-63
2022/09/25 03:14:39;;;;;;;8.65;3.20;;;9.30;99.90;;;;;;5051201;28;20029;-63
2022/09/25 03:17:07;;;;;;;9.73;3.28;;;9.40;99.90;;;;;;5051942;28;20029;-62
2022/09/25 03:19:37;;;;;;;7.70;3.30;;;9.30;99.90;;;;;;5051693;28;20041;-62
2022/09/25 03:22:02;;;;;;;6.15;2.90;;;9.40;99.90;;;;;;5051468;28;20045;-62
2022/09/25 03:24:28;;;;;;;10.50;3.15;;;9.40;99.90;;;;;;5051219;28;20354;-62
2022/09/25 03:26:54;;;;;;;8.48;3.28;;;9.40;99.90;;;;;;5037614;28;20087;-62
2022/09/25 03:29:20;;;;;;;8.25;3.50;;;9.50;99.90;;;;;;5051675;28;20033;-62
2022/09/25 03:31:46;;;;;;;5.28;3.00;;;9.50;99.90;;;;;;5051517;28;20033;-63
2022/09/25 03:34:15;;;;;;;9.77;3.17;;;9.50;99.90;;;;;;5051261;28;20120;-62
2022/09/25 03:36:41;;;;;;;7.45;3.47;;;9.60;99.90;;;;;;5051377;28;20065;-62
2022/09/25 03:39:09;;;;;;;8.52;3.53;;;9.60;99.90;;;;;;5051357;28;20116;-62
2022/09/25 03:41:35;;;;;;;7.28;3.28;;;9.60;99.90;;;;;;5051668;28;20036;-63
2022/09/25 03:44:01;;;;;;;4.95;2.55;;;9.60;99.90;;;;;;5050897;28;20059;-62
2022/09/25 03:46:29;;;;;;;7.40;2.65;;;9.60;99.90;;;;;;5051594;28;20033;-62
2022/09/25 03:48:55;;;;;;;7.05;2.53;;;9.60;99.90;;;;;;5051452;28;20033;-63
2022/09/25 03:51:22;;;;;;;5.28;2.70;;;9.60;99.90;;;;;;5051501;28;20048;-62
2022/09/25 03:53:48;;;;;;;7.07;3.00;;;9.50;99.90;;;;;;5049784;28;20136;-62
2022/09/25 03:56:19;;;;;;;6.40;2.50;;;9.50;99.90;;;;;;5051048;28;20111;-63
2022/09/25 03:58:45;;;;;;;7.82;2.75;;;9.50;99.90;;;;;;5051359;28;20040;-63
2022/09/25 04:01:12;;;;;;;5.05;2.53;;;9.50;99.90;;;;;;5051447;28;20120;-62
2022/09/25 04:03:38;;;;;;;7.00;3.20;;;9.50;99.90;;;;;;5050876;28;20093;-62
2022/09/25 04:06:06;;;;;;;6.72;2.67;;;9.50;99.90;;;;;;5051021;28;20478;-62
2022/09/25 04:08:33;;;;;;;6.25;2.97;;;9.50;99.90;;;;;;5051260;28;20041;-62
2022/09/25 04:11:00;;;;;;;6.13;3.42;;;9.40;99.90;;;;;;5051121;28;20148;-62
2022/09/25 04:13:28;;;;;;;7.68;3.13;;;9.40;99.90;;;;;;5050745;28;20029;-62
2022/09/25 04:15:55;;;;;;;11.32;3.10;;;9.40;99.90;;;;;;5049956;28;20527;-63
2022/09/25 04:18:21;;;;;;;7.18;2.70;;;9.40;99.90;;;;;;5050992;28;20454;-62
2022/09/25 04:20:46;;;;;;;8.60;3.47;;;9.40;99.90;;;;;;5051245;28;20048;-62
2022/09/25 04:23:12;;;;;;;8.55;3.03;;;9.30;99.90;;;;;;5050161;28;20040;-62
2022/09/25 04:25:38;;;;;;;9.15;3.50;;;9.30;99.90;;;;;;5051175;28;20041;-62
2022/09/25 04:28:04;;;;;;;10.18;3.28;;;9.30;99.90;;;;;;5050968;28;20116;-62
2022/09/25 04:30:29;;;;;;;5.72;3.10;;;9.30;99.90;;;;;;5050795;28;20037;-62
2022/09/25 04:35:40;;;;;;;8.10;3.00;;;9.40;99.90;;;;;;5053400;28;20453;-62
2022/09/25 04:38:06;;;;;;;8.95;3.05;;;9.50;99.90;;;;;;5053831;28;20057;-62
2022/09/25 04:40:32;;;;;;;8.18;3.00;;;9.50;99.90;;;;;;5054548;28;20068;-62
2022/09/25 04:43:03;;;;;;;7.13;3.10;;;9.40;99.90;;;;;;5053930;28;20108;-62
2022/09/25 04:45:31;;;;;;;7.25;2.70;;;9.40;99.90;;;;;;5054466;28;20047;-63
2022/09/25 04:47:59;;;;;;;5.88;2.70;;;9.40;99.90;;;;;;5054451;28;20048;-62
2022/09/25 04:50:26;;;;;;;6.43;2.70;;;9.40;99.90;;;;;;5054368;28;20029;-63
2022/09/25 04:52:52;;;;;;;6.47;2.80;;;9.40;99.90;;;;;;5053868;28;20052;-62
2022/09/25 04:55:20;;;;;;;5.50;2.67;;;9.40;99.90;;;;;;5053920;28;20029;-63
2022/09/25 04:58:00;;;;;;;10.18;3.15;;;9.40;99.90;;;;;;5053082;28;20033;-62
2022/09/25 05:00:28;;;;;;;5.90;2.67;;;9.50;99.90;;;;;;5054088;28;20025;-63
2022/09/25 05:02:54;;;;;;;6.82;2.58;;;9.50;99.90;;;;;;5053718;28;20036;-62
2022/09/25 05:05:19;;;;;;;8.63;2.55;;;9.50;99.90;;;;;;5053986;28;20300;-62
2022/09/25 05:07:51;;;;;;;7.90;2.55;;;9.60;99.90;;;;;;5053714;28;20124;-63
2022/09/25 05:10:18;;;;;;;5.13;2.63;;;9.60;99.90;;;;;;5053786;28;20454;-62
2022/09/25 05:12:44;;;;;;;5.95;2.45;;;9.60;99.90;;;;;;5052318;28;20041;-61
2022/09/25 05:15:10;;;;;;;7.43;2.72;;;9.70;99.90;;;;;;5053620;28;20025;-62
2022/09/25 05:17:35;;;;;;;9.43;3.00;;;9.70;99.90;;;;;;5054131;28;20037;-63
2022/09/25 05:20:02;;;;;;;6.60;2.67;;;9.70;99.90;;;;;;5053503;28;20060;-62
2022/09/25 05:22:28;;;;;;;8.85;2.72;;;9.70;99.90;;;;;;5053121;28;20414;-62
2022/09/25 05:24:53;;;;;;;8.10;2.42;;;9.70;99.90;;;;;;5053252;28;20080;-62
2022/09/25 05:27:21;;;;;;;7.03;2.38;;;9.70;99.90;;;;;;5053521;28;20025;-62
2022/09/25 05:29:47;;;;;;;7.45;2.60;;;9.70;99.90;;;;;;5053357;28;20081;-61
2022/09/25 05:32:12;;;;;;;5.90;2.78;;;9.70;99.90;;;;;;5053100;28;20040;-62
2022/09/25 05:34:38;;;;;;;7.07;2.67;;;9.80;99.90;;;;;;5052439;28;20116;-61
2022/09/25 05:37:03;;;;;;;4.97;2.47;;;9.80;99.90;;;;;;5052244;28;20092;-62
2022/09/25 05:39:29;;;;;;;6.55;2.88;;;9.80;99.90;;;;;;5053155;28;20045;-62
2022/09/25 05:41:55;;;;;;;7.38;2.72;;;9.80;99.90;;;;;;5052748;28;20053;-62
2022/09/25 05:44:20;;;;;;;7.45;2.80;;;9.80;99.90;;;;;;5051853;28;20098;-62
2022/09/25 05:46:46;;;;;;;6.80;2.50;;;9.80;99.90;;;;;;5052433;28;20037;-62
2022/09/25 05:49:11;;;;;;;7.65;2.80;;;9.80;99.90;;;;;;5052486;28;20040;-62
2022/09/25 05:51:37;;;;;;;8.05;3.03;;;9.80;99.90;;;;;;5052416;28;20358;-62
2022/09/25 05:54:02;;;;;;;5.13;2.35;;;9.80;99.90;;;;;;5051393;28;20336;-62
2022/09/25 05:56:28;;;;;;;7.13;2.53;;;9.80;99.90;;;;;;5052230;28;20036;-63
2022/09/25 05:58:57;;;;;;;6.80;2.40;;;9.90;99.90;;;;;;5051845;28;20161;-61
2022/09/25 06:01:22;;;;;;;5.68;2.40;;;9.90;99.90;;;;;;5050660;28;20045;-62
2022/09/25 06:03:48;;;;;;;7.55;3.00;;;9.90;99.90;;;;;;5051522;28;20028;-62
2022/09/25 06:06:14;;;;;;;7.03;2.72;;;10.00;99.90;;;;;;5051678;28;20376;-62
2022/09/25 06:08:39;;;;;;;7.22;2.83;;;10.00;99.90;;;;;;5051838;28;20047;-71
2022/09/25 06:11:06;;;;;;;5.05;2.53;;;10.10;99.90;;;;;;5051953;28;20067;-62
2022/09/25 06:13:33;;;;;;;5.78;2.67;;;10.40;99.90;;;;;;5050924;28;20045;-62
2022/09/25 06:15:59;;;;;;;7.30;2.42;;;10.80;99.90;;;;;;5052347;28;20434;-63
2022/09/25 06:18:25;;;;;;;6.57;2.55;;;11.10;99.90;;;;;;5067478;28;20051;-62
2022/09/25 06:20:51;;;;;;;6.90;2.40;;;11.40;99.90;;;;;;5052568;28;20029;-63
2022/09/25 06:23:17;;;;;;;5.10;2.40;;;11.80;99.90;;;;;;5051804;28;20114;-62
2022/09/25 06:25:43;;;;;;;5.03;2.20;;;12.10;99.90;;;;;;5052545;28;20381;-61
2022/09/25 06:28:11;;;;;;;5.15;2.13;;;12.50;99.90;;;;;;5052142;28;20047;-62
2022/09/25 06:30:37;;;;;;;5.88;2.28;;;12.80;99.90;;;;;;5051815;28;20361;-62
2022/09/25 06:33:09;;;;;;;6.63;2.20;;;13.10;99.90;;;;;;5051976;28;20088;-61
2022/09/25 06:35:43;;;;;;;3.08;1.60;;;13.20;99.90;;;;;;5051860;28;20359;-61
2022/09/25 06:38:10;;;;;;;5.82;1.67;;;13.20;99.90;;;;;;5051862;28;20072;-62
2022/09/25 06:40:37;;;;;;;4.40;1.70;;;13.20;99.90;;;;;;5051754;28;20537;-61
2022/09/25 06:43:04;;;;;;;5.22;1.80;;;13.00;99.90;;;;;;5051103;28;20492;-61
2022/09/25 06:45:32;;;;;;;7.03;1.70;;;13.00;99.90;;;;;;5051749;28;20458;-61
2022/09/25 06:48:28;;;;;;;4.15;1.90;;;13.00;99.90;;;;;;5052191;28;20041;-61
2022/09/25 06:50:58;;;;;;;5.80;1.80;;;13.00;99.90;;;;;;5047037;28;20429;-61
2022/09/25 06:53:25;;;;;;;5.32;1.45;;;13.00;99.90;;;;;;5051479;28;20055;-61
2022/09/25 06:55:50;;;;;;;4.45;1.70;;;13.10;99.90;;;;;;5051984;28;20041;-61
2022/09/25 06:58:19;;;;;;;4.50;1.85;;;13.20;99.90;;;;;;5051568;28;20040;-60
2022/09/25 07:00:46;;;;;;;4.25;1.58;;;13.30;99.90;;;;;;5051807;28;20047;-61
2022/09/25 07:05:58;;;;;;;;;;;13.50;99.90;;;;;;5051863;28;20171;-62
2022/09/25 07:08:24;;;;;;;6.78;1.50;;;13.60;99.90;;;;;;5051428;28;19998;-61
2022/09/25 07:10:51;;;;;;;2.75;1.10;;;13.70;99.90;;;;;;5051333;28;20037;-62
2022/09/25 07:13:19;;;;;;;4.15;1.10;;;13.80;99.90;;;;;;5050341;28;20446;-62
2022/09/25 07:15:55;;;;;;;4.43;1.50;;;14.00;99.90;;;;;;5051373;28;20051;-61
2022/09/25 07:18:22;;;;;;;2.72;1.13;;;14.10;99.90;;;;;;5051238;28;20037;-61
2022/09/25 07:20:49;;;;;;;3.10;1.08;;;14.10;99.90;;;;;;5051447;28;20060;-61
2022/09/25 07:23:19;;;;;;;4.90;1.58;;;14.10;99.90;;;;;;5050828;28;20033;-61
2022/09/25 07:25:46;;;;;;;5.43;1.55;;;14.10;99.90;;;;;;5050548;28;20037;-62
2022/09/25 07:28:13;;;;;;;8.25;1.65;;;13.90;99.90;;;;;;5051814;28;20080;-61
2022/09/25 07:30:40;;;;;;;3.63;1.20;;;13.90;99.90;;;;;;5051680;28;20029;-61
2022/09/25 07:33:06;;;;;;;4.53;1.20;;;13.90;99.90;;;;;;5050830;28;20458;-61
2022/09/25 07:35:35;;;;;;;4.03;1.27;;;13.80;99.90;;;;;;5051261;28;20029;-61
2022/09/25 07:38:02;;;;;;;4.30;1.23;;;13.70;99.90;;;;;;5051111;28;20114;-61
2022/09/25 07:40:30;;;;;;;3.53;1.20;;;13.60;99.90;;;;;;5051697;28;20040;-61
2022/09/25 07:42:59;;;;;;;3.85;1.27;;;13.60;99.90;;;;;;5050683;28;20457;-61
2022/09/25 07:45:25;;;;;;;4.07;1.30;;;13.70;99.90;;;;;;5051443;28;20047;-61
2022/09/25 07:47:59;;;;;;;4.35;1.08;;;13.70;99.90;;;;;;5051639;28;20086;-62
2022/09/25 07:50:25;;;;;;;4.15;1.40;;;13.70;99.90;;;;;;5051447;28;20048;-60
2022/09/25 07:52:52;;;;;;;4.20;1.10;;;13.70;99.90;;;;;;5049916;28;20037;-62
2022/09/25 07:55:18;;;;;;;5.47;1.70;;;13.80;99.90;;;;;;5051016;28;20033;-61
2022/09/25 07:57:44;;;;;;;5.38;1.40;;;13.90;99.90;;;;;;5050123;28;20037;-61
2022/09/25 08:00:10;;;;;;;4.22;1.27;;;13.90;99.90;;;;;;5051001;28;20033;-60
2022/09/25 08:02:36;;;;;;;3.72;1.10;;;13.90;99.90;;;;;;5050116;28;20037;-61
2022/09/25 08:05:01;;;;;;;3.83;1.05;;;13.90;99.90;;;;;;5050581;28;20039;-61
2022/09/25 08:07:27;;;;;;;4.22;1.17;;;13.90;99.90;;;;;;5050568;28;20152;-61
2022/09/25 08:09:53;;;;;;;4.70;1.20;;;14.00;99.90;;;;;;5052057;28;20198;-61
2022/09/25 08:12:21;;;;;;;4.32;1.17;;;14.00;99.90;;;;;;5053827;28;20120;-60
2022/09/25 08:14:47;;;;;;;4.10;1.23;;;14.00;99.90;;;;;;5054086;28;20039;-61
2022/09/25 08:17:12;;;;;;;3.78;1.10;;;14.10;99.90;;;;;;5054066;28;20033;-61
2022/09/25 08:19:38;;;;;;;7.80;1.42;;;14.20;99.90;;;;;;5053849;28;20377;-61
2022/09/25 08:22:03;;;;;;;4.25;1.15;;;14.20;99.90;;;;;;5051157;28;20126;-61
2022/09/25 08:24:29;;;;;;;4.20;1.17;;;14.30;99.90;;;;;;5053876;28;20041;-61
2022/09/25 08:26:54;;;;;;;4.30;1.30;;;14.30;99.90;;;;;;5052371;28;20059;-60
2022/09/25 08:29:20;;;;;;;3.92;1.05;;;14.50;99.90;;;;;;5053793;28;20051;-61
2022/09/25 08:31:47;;;;;;;3.85;1.10;;;14.60;99.90;;;;;;5053621;28;20041;-60
2022/09/25 08:34:14;;;;;;;3.88;1.10;;;14.60;99.90;;;;;;5052852;28;20178;-61
2022/09/25 08:36:39;;;;;;;3.63;1.10;;;14.70;99.90;;;;;;5053279;28;20471;-60
2022/09/25 08:39:05;;;;;;;4.47;0.95;;;14.70;99.90;;;;;;5053644;28;20037;-61
2022/09/25 08:41:36;;;;;;;5.18;1.13;;;14.70;99.90;;;;;;5054149;28;20080;-61
2022/09/25 08:44:18;;;;;;;3.60;1.17;;;14.80;99.90;;;;;;5052233;28;20458;-60
2022/09/25 08:49:55;;;;;;;5.22;1.10;;;15.00;99.90;;;;;;5042740;28;20052;-60
2022/09/25 08:52:21;;;;;;;4.65;1.20;;;15.10;99.90;;;;;;5053172;28;20366;-60
2022/09/25 08:54:47;;;;;;;3.53;1.00;;;15.20;99.90;;;;;;5051060;28;20685;-60
2022/09/25 08:57:42;;;;;;;3.13;1.10;;;15.10;99.90;;;;;;5053651;28;20438;-62
2022/09/25 09:00:19;;;;;;;;;;;15.10;99.90;;;;;;5053717;28;20045;-61
2022/09/25 09:02:53;;;;;;;4.75;1.10;;;15.30;99.90;;;;;;5068568;28;19950;-63
2022/09/25 09:05:25;;;;;;;6.10;1.50;;;15.40;99.90;;;;;;5051843;28;20067;-62
2022/09/25 09:08:06;;;;;;;9.07;2.13;;;15.40;99.90;;;;;;5053575;28;20040;-62
2022/09/25 09:10:41;;;;;;;6.80;1.80;;;15.40;99.90;;;;;;5053798;28;20190;-62
2022/09/25 09:13:29;;;;;;;9.02;1.52;;;15.60;99.90;;;;;;5052657;28;20029;-60
2022/09/25 09:16:20;;;;;;;4.65;1.10;;;15.60;99.90;;;;;;5053475;28;20098;-62
2022/09/25 09:18:45;;;;;;;4.47;1.30;;;15.80;99.90;;;;;;5048010;28;20044;-62
2022/09/25 09:21:21;;;;;;;3.95;1.15;;;15.80;99.90;;;;;;5053056;28;20047;-62
2022/09/25 09:23:46;;;;;;;6.72;1.48;;;15.80;99.90;;;;;;5050749;28;20055;-61
2022/09/25 09:26:19;;;;;;;5.10;1.10;;;15.80;99.90;;;;;;5052030;28;20288;-62
2022/09/25 09:29:11;;;;;;;5.18;1.00;;;15.90;99.90;;;;;;5052838;28;20488;-64
2022/09/25 09:31:55;;;;;;;4.78;1.17;;;15.90;99.90;;;;;;5053604;28;20041;-62
2022/09/25 09:34:50;;;;;;;3.28;1.05;;;16.00;99.90;;;;;;5048043;28;20029;-61
2022/09/25 09:37:30;;;;;;;;;;;16.20;99.90;;;;;;5053196;28;20381;-63
2022/09/25 09:40:45;;;;;;;6.55;1.33;;;16.30;99.90;;;;;;5053203;28;19916;-62
2022/09/25 09:43:21;;;;;;;;;;;16.60;99.90;;;;;;5051302;28;20052;-62
2022/09/25 09:46:12;;;;;;;3.85;1.05;;;16.50;99.90;;;;;;5052892;28;19917;-62
2022/09/25 09:49:03;;;;;;;2.83;0.85;;;16.40;99.90;;;;;;5053280;28;20166;-62
2022/09/25 09:51:37;;;;;;;5.95;1.20;;;16.40;99.90;;;;;;5040827;28;20374;-62
2022/09/25 09:54:14;;;;;;;5.38;1.42;;;16.50;99.90;;;;;;5051037;28;20547;-62
2022/09/25 09:56:43;;;;;;;3.65;1.05;;;16.60;99.90;;;;;;5050947;28;20083;-62
2022/09/25 09:59:26;;;;;;;3.70;1.00;;;16.60;99.90;;;;;;5051896;28;20029;-63
2022/09/25 10:02:01;;;;;;;5.28;1.05;;;16.50;99.90;;;;;;5051712;28;20037;-63
2022/09/25 10:04:36;;;;;;;5.55;1.38;;;16.30;99.90;;;;;;5050704;28;20041;-62
2022/09/25 10:07:13;;;;;;;6.57;1.25;;;16.20;99.90;;;;;;5051807;28;20040;-62
2022/09/25 10:09:38;;;;;;;5.00;1.02;;;16.20;99.90;;;;;;5052260;28;20103;-63
2022/09/25 10:12:14;;;;;;;2.78;1.00;;;16.20;99.90;;;;;;5051659;28;20041;-62
2022/09/25 10:14:44;;;;;;;4.10;1.05;;;16.20;99.90;;;;;;5051777;28;20033;-62
2022/09/25 10:17:10;;;;;;;4.50;0.88;;;16.40;99.90;;;;;;5050673;28;20182;-62
2022/09/25 10:19:58;;;;;;;3.85;1.10;;;16.60;99.90;;;;;;5051858;28;20055;-62
2022/09/25 10:22:35;;;;;;;4.80;0.85;;;16.80;99.90;;;;;;5048956;28;20040;-62
2022/09/25 10:25:01;;;;;;;2.75;0.85;;;17.00;99.90;;;;;;5051697;28;20045;-62
2022/09/25 10:27:45;;;;;;;4.35;0.82;;;17.10;99.90;;;;;;5051698;28;20112;-63
2022/09/25 10:30:10;;;;;;;4.05;1.10;;;17.10;99.90;;;;;;5051621;28;20116;-63
2022/09/25 10:33:08;;;;;;;2.30;0.80;;;17.00;99.90;;;;;;5049270;28;20402;-61
2022/09/25 10:35:36;;;;;;;1.38;0.60;;;16.60;99.90;;;;;;5049825;28;20127;-62
2022/09/25 10:38:03;;;;;;;1.73;0.70;;;16.30;99.90;;;;;;5051760;28;20060;-63
2022/09/25 10:40:36;;;;;;;2.03;0.70;;;16.10;99.90;;;;;;5051520;28;20073;-62
2022/09/25 10:43:16;;;;;;;2.33;0.80;;;15.70;99.90;;;;;;5048416;28;20044;-64
2022/09/25 10:45:41;;;;;;;2.88;1.00;;;15.10;99.90;;;;;;5051762;28;20032;-63
2022/09/25 10:51:20;;;;;;;3.13;0.98;;;14.80;99.90;;;;;;5048495;28;20060;-63
2022/09/25 10:53:47;;;;;;;3.78;0.90;;;14.80;99.90;;;;;;5050187;28;20090;-63
2022/09/25 10:56:26;;;;;;;2.50;0.80;;;14.80;99.90;;;;;;5050900;28;20029;-63
2022/09/25 10:59:00;;;;;;;3.47;0.80;;;14.80;99.90;;;;;;5050875;28;20044;-62
2022/09/25 11:01:46;;;;;;;1.20;0.82;;;14.90;99.90;;;;;;5049890;28;20064;-62
2022/09/25 11:04:19;;;;;;;2.67;0.85;;;15.10;99.90;;;;;;5050543;28;20103;-62
2022/09/25 11:06:51;;;;;;;2.83;1.10;;;15.10;99.90;;;;;;5049332;28;20430;-62
2022/09/25 11:09:22;;;;;;;1.58;0.60;;;15.10;99.90;;;;;;5050066;28;20128;-61
2022/09/25 11:11:48;;;;;;;2.42;1.10;;;15.20;99.90;;;;;;5050560;28;20111;-62
2022/09/25 11:14:32;;;;;;;4.00;0.93;;;15.30;99.90;;;;;;5049694;28;20037;-63
2022/09/25 11:17:00;;;;;;;1.90;0.80;;;15.40;99.90;;;;;;5047858;28;20029;-62
2022/09/25 11:19:31;;;;;;;1.85;0.70;;;15.60;99.90;;;;;;5050413;28;20102;-62
2022/09/25 11:22:14;;;;;;;0.98;0.60;;;15.70;99.90;;;;;;5050794;28;20374;-62
2022/09/25 11:25:00;;;;;;;2.25;0.77;;;15.80;99.90;;;;;;5049782;28;20072;-62
2022/09/25 11:27:39;;;;;;;3.35;0.60;;;15.80;99.90;;;;;;5048599;28;20041;-62
2022/09/25 11:30:09;;;;;;;3.13;1.13;;;15.70;99.90;;;;;;5050149;28;20424;-62
2022/09/25 11:32:49;;;;;;;1.70;0.68;;;15.70;99.90;;;;;;5049593;28;20368;-62
2022/09/25 11:35:44;;;;;;;1.88;0.60;;;15.80;99.90;;;;;;5050288;28;20098;-62
2022/09/25 11:41:49;;;;;;;1.63;0.63;;;15.90;99.90;;;;;;5041862;28;20047;-62
2022/09/25 11:44:18;;;;;;;1.40;0.70;;;15.80;99.90;;;;;;5052412;28;20037;-62
2022/09/25 11:47:17;;;;;;;3.13;0.80;;;15.70;99.90;;;;;;5053521;28;20041;-61
2022/09/25 11:49:50;;;;;;;2.33;0.80;;;15.70;99.90;;;;;;5051885;28;20056;-61
2022/09/25 11:52:46;;;;;;;1.35;0.60;;;15.60;99.90;;;;;;5053679;28;20079;-60
2022/09/25 11:55:17;;;;;;;2.22;0.77;;;15.50;99.90;;;;;;5046761;28;20112;-62
2022/09/25 11:57:49;;;;;;;3.72;0.90;;;15.50;99.90;;;;;;5054919;28;20425;-62
2022/09/25 12:00:39;;;;;;;5.13;1.27;;;15.50;99.90;;;;;;5054602;28;20044;-62
2022/09/25 12:03:14;;;;;;;3.65;1.25;;;15.50;99.90;;;;;;5053289;28;20355;-61
2022/09/25 12:06:11;;;;;;;3.20;0.93;;;15.50;99.90;;;;;;5053910;28;20045;-61
2022/09/25 12:09:18;;;;;;;2.50;1.00;;;15.30;99.90;;;;;;5054314;28;20044;-62
2022/09/25 12:12:09;;;;;;;9.35;6.28;;;15.30;99.90;;;;;;5033277;28;20053;-62
2022/09/25 12:14:49;;;;;;;19.00;13.52;;;15.20;99.90;;;;;;5052951;28;20186;-62
2022/09/25 12:17:28;;;;;;;13.25;8.48;;;15.40;99.90;;;;;;5054676;28;20643;-62
2022/09/25 12:20:14;;;;;;;10.70;7.55;;;15.50;99.90;;;;;;5054753;28;20037;-62
2022/09/25 12:23:07;;;;;;;9.00;4.78;;;15.50;99.90;;;;;;5053041;28;20492;-61
2022/09/25 12:26:10;;;;;;;7.13;4.13;;;15.50;99.90;;;;;;5047973;28;20464;-62
2022/09/25 12:29:09;;;;;;;4.78;3.13;;;15.50;99.90;;;;;;5054351;28;20052;-62
2022/09/25 12:32:20;;;;;;;6.57;4.70;;;15.60;99.90;;;;;;5054236;28;20045;-62
2022/09/25 12:35:10;;;;;;;3.55;2.30;;;15.70;99.90;;;;;;5052982;28;20029;-62
2022/09/25 12:37:46;;;;;;;6.97;3.58;;;15.70;99.90;;;;;;5052567;28;20049;-62
2022/09/25 12:40:20;;;;;;;4.22;2.25;;;15.80;99.90;;;;;;5053283;28;20037;-62
2022/09/25 12:42:57;;;;;;;;;;;15.90;99.90;;;;;;5041949;28;20127;-62
2022/09/25 12:45:42;;;;;;;3.42;1.75;;;16.00;99.90;;;;;;5048420;28;19951;-61
2022/09/25 12:48:30;;;;;;;4.43;2.47;;;16.20;99.90;;;;;;5054060;28;20072;-63
2022/09/25 12:51:13;;;;;;;8.77;4.75;;;16.30;99.90;;;;;;5051809;28;20029;-62
2022/09/25 12:53:48;;;;;;;6.68;3.83;;;16.30;99.90;;;;;;5053316;28;20029;-62
2022/09/25 12:56:23;;;;;;;5.95;3.05;;;16.40;99.90;;;;;;5052452;28;20051;-62
2022/09/25 12:59:09;;;;;;;7.95;4.53;;;16.40;99.90;;;;;;5054362;28;20051;-63
2022/09/25 13:01:48;;;;;;;4.78;2.47;;;16.60;99.90;;;;;;5042342;28;20561;-62
2022/09/25 13:04:35;;;;;;;6.53;3.40;;;16.50;99.90;;;;;;5053142;28;20044;-63
2022/09/25 13:07:09;;;;;;;4.82;2.00;;;16.60;99.90;;;;;;5052601;28;20056;-63
2022/09/25 13:09:47;;;;;;;2.30;1.53;;;16.50;99.90;;;;;;5049680;28;20041;-62
2022/09/25 13:12:33;;;;;;;4.57;1.75;;;16.50;99.90;;;;;;5052703;28;20407;-62
2022/09/25 13:15:10;;;;;;;4.00;1.95;;;16.50;99.90;;;;;;5053010;28;20029;-62
2022/09/25 13:17:36;;;;;;;5.63;3.20;;;16.40;99.90;;;;;;5053814;28;20040;-62
2022/09/25 13:20:27;;;;;;;5.30;2.80;;;16.40;99.90;;;;;;5053376;28;20033;-63
2022/09/25 13:23:13;;;;;;;4.55;2.25;;;16.40;99.90;;;;;;5052118;28;20428;-63
2022/09/25 13:25:59;;;;;;;6.65;2.55;;;16.40;99.90;;;;;;5053564;28;20041;-62
2022/09/25 13:28:39;;;;;;;5.63;2.35;;;16.50;99.90;;;;;;5051621;28;20048;-63
2022/09/25 13:31:26;;;;;;;4.63;1.40;;;16.30;99.90;;;;;;5053194;28;20386;-62
2022/09/25 13:34:00;;;;;;;3.47;1.48;;;16.20;99.90;;;;;;5052675;28;20444;-64
2022/09/25 13:36:35;;;;;;;4.05;2.17;;;16.20;99.90;;;;;;5052505;28;20094;-62
2022/09/25 13:41:57;;;;;;;5.10;2.00;;;16.10;99.90;;;;;;5051389;28;20476;-62